Time;durP1;ratioP1;P1;durP2;ratioP2;P2;SDS_P1;SDS_P2;PMS_P1;PMS_P2;Temp;Humidity;BMP_temperature;BMP_pressure;BME280_temperature;BME280_humidity;BME280_pressure;Samples;Min_cycle;Max_cycle;Signal;HPM_P1;HPM_P2
2023/09/15 00:01:32;;;;;;;16.63;10.25;;;;;;;14.39;100.00;101808.56;5052581;28;20060;-69
2023/09/15 00:03:58;;;;;;;14.65;10.48;;;;;;;14.26;100.00;101804.94;5037152;28;20049;-69
2023/09/15 00:06:24;;;;;;;13.65;10.02;;;;;;;14.24;100.00;101806.25;5038557;28;20025;-69
2023/09/15 00:08:50;;;;;;;13.50;10.73;;;;;;;14.18;100.00;101802.53;5070642;28;20468;-69
2023/09/15 00:11:16;;;;;;;12.90;10.48;;;;;;;14.15;100.00;101792.91;5055405;28;20036;-69
2023/09/15 00:13:42;;;;;;;15.80;10.32;;;;;;;14.21;100.00;101802.09;5039793;28;20039;-69
2023/09/15 00:16:07;;;;;;;13.10;9.90;;;;;;;14.15;100.00;101798.38;5063650;28;20029;-69
2023/09/15 00:18:33;;;;;;;14.70;10.90;;;;;;;14.14;100.00;101796.69;5070513;28;20668;-69
2023/09/15 00:20:59;;;;;;;15.70;10.50;;;;;;;14.12;100.00;101790.66;5054854;28;20060;-69
2023/09/15 00:23:24;;;;;;;13.73;10.50;;;;;;;14.11;100.00;101796.31;5054651;28;20029;-69
2023/09/15 00:25:52;;;;;;;13.35;10.57;;;;;;;13.98;100.00;101787.25;5058711;28;20086;-69
2023/09/15 00:28:17;;;;;;;14.52;10.05;;;;;;;14.08;100.00;101794.06;5065686;28;20060;-69
2023/09/15 00:30:43;;;;;;;13.40;11.10;;;;;;;13.98;100.00;101787.25;5066399;28;20067;-69
2023/09/15 00:33:08;;;;;;;14.20;10.73;;;;;;;14.03;100.00;101786.56;5059323;28;20111;-69
2023/09/15 00:35:33;;;;;;;13.27;10.52;;;;;;;14.03;100.00;101788.47;5055056;28;20139;-69
2023/09/15 00:37:59;;;;;;;12.13;10.80;;;;;;;13.94;100.00;101780.56;5035554;28;20029;-69
2023/09/15 00:40:25;;;;;;;17.15;11.18;;;;;;;13.96;100.00;101783.91;5052188;28;20032;-69
2023/09/15 00:42:52;;;;;;;13.95;11.07;;;;;;;13.95;100.00;101784.97;5068468;28;20029;-69
2023/09/15 00:45:22;;;;;;;16.45;11.20;;;;;;;13.92;100.00;101776.41;5036589;28;20559;-69
2023/09/15 00:47:57;;;;;;;13.35;10.85;;;;;;;13.94;100.00;101782.47;5044694;28;20027;-69
2023/09/15 00:50:26;;;;;;;12.05;10.73;;;;;;;13.96;100.00;101783.91;5036214;28;20029;-69
2023/09/15 00:53:04;;;;;;;13.38;10.80;;;;;;;13.85;100.00;101778.38;5049987;28;20028;-69
2023/09/15 00:55:32;;;;;;;14.63;10.30;;;;;;;13.86;100.00;101778.16;5046370;28;20476;-68
2023/09/15 00:58:01;;;;;;;16.58;11.48;;;;;;;13.69;100.00;101782.50;5053851;28;20025;-68
2023/09/15 01:00:27;;;;;;;13.93;10.75;;;;;;;13.73;100.00;101778.28;5051675;28;20029;-68
2023/09/15 01:02:53;;;;;;;14.13;11.65;;;;;;;13.77;100.00;101772.16;5053435;28;20029;-68
2023/09/15 01:05:23;;;;;;;12.95;11.60;;;;;;;13.70;100.00;101774.13;5034827;28;20060;-68
2023/09/15 01:07:52;;;;;;;13.65;11.55;;;;;;;13.59;100.00;101772.97;5053218;28;20419;-69
2023/09/15 01:10:22;;;;;;;14.43;11.38;;;;;;;13.61;100.00;101765.41;5054885;28;20113;-68
2023/09/15 01:12:49;;;;;;;16.20;11.45;;;;;;;13.61;100.00;101780.88;5059904;28;20445;-68
2023/09/15 01:15:17;;;;;;;12.75;10.70;;;;;;;13.58;100.00;101774.00;5053857;28;20032;-69
2023/09/15 01:17:45;;;;;;;13.48;11.38;;;;;;;13.54;100.00;101774.66;5058819;28;20040;-70
2023/09/15 01:20:18;;;;;;;12.40;10.77;;;;;;;13.49;100.00;101767.19;5058124;28;20035;-70
2023/09/15 01:23:05;;;;;;;14.43;11.05;;;;;;;13.44;100.00;101770.56;5053348;28;20037;-69
2023/09/15 01:26:02;;;;;;;13.10;11.18;;;;;;;13.45;100.00;101761.38;5053379;28;20476;-71
2023/09/15 01:28:47;;;;;;;14.45;11.50;;;;;;;13.37;100.00;101755.38;5053644;28;20387;-72
2023/09/15 01:31:13;;;;;;;14.30;11.00;;;;;;;13.24;100.00;101754.38;5053874;28;20431;-74
2023/09/15 01:33:38;;;;;;;14.73;11.27;;;;;;;13.23;100.00;101758.16;5053191;28;20039;-73
2023/09/15 01:36:04;;;;;;;15.18;11.20;;;;;;;13.14;100.00;101756.75;5034956;28;20095;-73
2023/09/15 01:38:31;;;;;;;15.20;11.48;;;;;;;13.23;100.00;101758.16;5057683;28;20024;-73
2023/09/15 01:40:56;;;;;;;13.13;11.73;;;;;;;13.17;100.00;101747.34;5064895;28;20484;-74
2023/09/15 01:43:24;;;;;;;12.55;10.93;;;;;;;13.13;100.00;101741.50;5063825;28;20068;-72
2023/09/15 01:45:50;;;;;;;17.17;11.55;;;;;;;12.96;100.00;101745.81;5071407;28;20495;-71
2023/09/15 01:48:23;;;;;;;14.52;11.15;;;;;;;13.11;100.00;101743.59;5052707;28;20025;-73
2023/09/15 01:50:50;;;;;;;12.88;11.50;;;;;;;12.95;100.00;101742.25;5052579;28;20017;-73
2023/09/15 01:53:18;;;;;;;16.92;12.00;;;;;;;13.04;100.00;101742.81;5053462;28;20080;-73
2023/09/15 01:55:43;;;;;;;13.65;12.25;;;;;;;13.07;100.00;101742.38;5066547;28;20201;-74
2023/09/15 01:58:09;;;;;;;12.93;11.50;;;;;;;13.02;100.00;101740.31;5035071;28;20734;-74
2023/09/15 02:00:36;;;;;;;13.98;11.93;;;;;;;13.08;100.00;101744.88;5033583;28;20032;-71
2023/09/15 02:03:03;;;;;;;16.45;12.07;;;;;;;13.09;100.00;101740.28;5059135;28;20048;-71
2023/09/15 02:05:28;;;;;;;15.55;11.82;;;;;;;13.07;100.00;101739.66;5059627;28;20442;-72
2023/09/15 02:07:54;;;;;;;12.95;11.18;;;;;;;13.05;100.00;101744.50;5057377;28;20108;-72
2023/09/15 02:10:19;;;;;;;13.30;10.95;;;;;;;13.01;100.00;101740.53;5053774;28;20383;-70
2023/09/15 02:12:44;;;;;;;12.60;11.30;;;;;;;12.91;100.00;101746.47;5071999;28;20024;-72
2023/09/15 02:15:11;;;;;;;15.32;10.88;;;;;;;12.97;100.00;101736.59;5072534;28;20062;-72
2023/09/15 02:17:37;;;;;;;13.02;11.13;;;;;;;12.94;100.00;101733.28;5059390;28;20488;-71
2023/09/15 02:20:11;;;;;;;12.93;11.32;;;;;;;12.84;100.00;101741.06;5064153;28;20035;-70
2023/09/15 02:22:37;;;;;;;13.43;11.38;;;;;;;12.82;100.00;101739.59;5063629;28;20057;-72
2023/09/15 02:25:03;;;;;;;12.88;11.52;;;;;;;12.78;100.00;101739.22;5051913;28;20032;-73
2023/09/15 02:27:30;;;;;;;12.45;11.02;;;;;;;12.73;100.00;101739.88;5052026;28;20384;-71
2023/09/15 02:29:56;;;;;;;14.63;11.32;;;;;;;12.70;100.00;101728.63;5068831;28;20044;-73
2023/09/15 02:32:27;;;;;;;13.35;11.65;;;;;;;12.67;100.00;101732.59;5034307;28;20087;-70
2023/09/15 02:34:53;;;;;;;14.48;10.50;;;;;;;12.67;100.00;101727.16;5050815;28;20086;-70
2023/09/15 02:37:18;;;;;;;13.95;11.50;;;;;;;12.75;100.00;101724.19;5053024;28;20032;-74
2023/09/15 02:39:43;;;;;;;13.05;11.65;;;;;;;12.77;100.00;101723.97;5067963;28;20029;-74
2023/09/15 02:42:12;;;;;;;17.23;12.15;;;;;;;12.67;100.00;101726.34;5071032;28;20025;-70
2023/09/15 02:44:37;;;;;;;16.40;11.85;;;;;;;12.68;100.00;101719.84;5072244;28;20025;-70
2023/09/15 02:47:03;;;;;;;12.80;10.82;;;;;;;12.66;100.00;101730.09;5064847;28;20566;-70
2023/09/15 02:49:28;;;;;;;14.73;11.57;;;;;;;12.62;100.00;101718.84;5051688;28;20028;-71
2023/09/15 02:51:56;;;;;;;14.60;11.00;;;;;;;12.59;100.00;101721.97;5051972;28;20033;-70
2023/09/15 02:54:24;;;;;;;15.65;11.20;;;;;;;12.60;100.00;101720.94;5033988;28;20391;-73
2023/09/15 02:56:50;;;;;;;15.60;11.73;;;;;;;12.56;100.00;101723.25;5039540;28;20036;-70
2023/09/15 02:59:15;;;;;;;14.43;11.73;;;;;;;12.50;100.00;101721.41;5044901;28;20399;-70
2023/09/15 03:01:43;;;;;;;14.20;11.35;;;;;;;12.53;100.00;101720.97;5037169;28;20052;-70
2023/09/15 03:04:08;;;;;;;14.07;11.52;;;;;;;12.48;100.00;101722.69;5068565;28;20051;-72
2023/09/15 03:06:34;;;;;;;14.85;11.90;;;;;;;12.47;100.00;101718.28;5070780;28;20024;-71
2023/09/15 03:08:59;;;;;;;14.57;11.50;;;;;;;12.52;100.00;101719.31;5071568;28;20107;-70
2023/09/15 03:11:25;;;;;;;16.63;12.07;;;;;;;12.47;100.00;101708.28;5038562;28;20029;-72
2023/09/15 03:13:50;;;;;;;13.10;10.93;;;;;;;12.52;100.00;101718.47;5056197;28;20125;-72
2023/09/15 03:16:16;;;;;;;12.55;11.02;;;;;;;12.50;100.00;101709.69;5060028;28;20067;-73
2023/09/15 03:18:42;;;;;;;14.50;11.18;;;;;;;12.39;100.00;101717.50;5079562;28;20025;-69
2023/09/15 03:21:08;;;;;;;14.70;12.00;;;;;;;12.45;100.00;101718.50;5071264;28;20051;-70
2023/09/15 03:23:34;;;;;;;13.23;11.82;;;;;;;12.41;100.00;101706.44;5060621;28;20029;-69
2023/09/15 03:26:01;;;;;;;18.13;12.27;;;;;;;12.44;100.00;101708.72;5076449;28;20361;-73
2023/09/15 03:28:27;;;;;;;19.05;12.05;;;;;;;12.38;100.00;101702.25;5039855;28;20029;-73
2023/09/15 03:30:53;;;;;;;16.27;11.73;;;;;;;12.40;100.00;101700.16;5050222;28;20036;-73
2023/09/15 03:33:24;;;;;;;15.98;11.30;;;;;;;12.43;100.00;101700.78;5042551;28;20032;-71
2023/09/15 03:35:49;;;;;;;;;;;;;;;12.66;100.00;101697.53;5070069;28;20036;-71
2023/09/15 03:38:15;;;;;;;14.15;11.23;;;;;;;12.40;100.00;101702.03;5076103;28;19908;-71
2023/09/15 03:40:40;;;;;;;16.65;11.27;;;;;;;12.33;100.00;101698.53;5055425;28;20021;-71
2023/09/15 03:43:06;;;;;;;19.65;12.13;;;;;;;12.37;100.00;101697.03;5037622;28;20029;-70
2023/09/15 03:45:33;;;;;;;14.88;11.45;;;;;;;12.35;100.00;101697.25;5073424;28;20024;-72
2023/09/15 03:47:58;;;;;;;15.23;11.60;;;;;;;12.16;100.00;101690.03;5057287;28;20068;-73
2023/09/15 03:50:24;;;;;;;13.95;11.07;;;;;;;12.23;100.00;101693.56;5038796;28;20098;-69
2023/09/15 03:52:49;;;;;;;15.43;11.88;;;;;;;12.31;100.00;101695.19;5037154;28;20383;-73
2023/09/15 03:55:17;;;;;;;18.92;12.32;;;;;;;12.17;100.00;101697.16;5055302;28;20028;-71
2023/09/15 03:57:42;;;;;;;18.10;11.82;;;;;;;12.28;100.00;101698.34;5066730;28;20398;-72
2023/09/15 04:00:19;;;;;;;16.40;11.70;;;;;;;12.17;100.00;101692.53;5059195;28;20033;-72
2023/09/15 04:02:44;;;;;;;14.38;10.98;;;;;;;12.30;100.00;101688.91;5052570;28;20031;-71
2023/09/15 04:05:10;;;;;;;16.10;12.07;;;;;;;12.32;100.00;101686.00;5063177;28;20128;-71
2023/09/15 04:07:37;;;;;;;16.55;11.85;;;;;;;12.19;100.00;101687.72;5037313;28;20032;-71
2023/09/15 04:10:05;;;;;;;18.02;12.15;;;;;;;12.21;100.00;101693.78;5062030;28;20033;-70
2023/09/15 04:12:30;;;;;;;18.38;11.52;;;;;;;12.19;100.00;101687.72;5045227;28;20496;-72
2023/09/15 04:14:56;;;;;;;14.73;10.93;;;;;;;12.15;100.00;101686.50;5054112;28;20040;-70
2023/09/15 04:17:21;;;;;;;13.15;11.43;;;;;;;12.17;100.00;101684.41;5054282;28;20119;-70
2023/09/15 04:19:47;;;;;;;14.55;11.88;;;;;;;12.11;100.00;101690.69;5068702;28;20036;-72
2023/09/15 04:22:12;;;;;;;16.00;11.27;;;;;;;12.13;100.00;101683.16;5054850;28;20753;-73
2023/09/15 04:24:37;;;;;;;16.60;11.27;;;;;;;12.22;100.00;101676.44;5054340;28;20655;-71
2023/09/15 04:27:03;;;;;;;13.90;10.65;;;;;;;12.20;100.00;101678.53;5036339;28;20035;-73
2023/09/15 04:29:28;;;;;;;13.95;10.82;;;;;;;12.23;100.00;101688.13;5044336;28;20119;-75
2023/09/15 04:31:56;;;;;;;13.60;10.93;;;;;;;12.10;100.00;101680.06;5057212;28;20029;-70
2023/09/15 04:34:21;;;;;;;17.83;11.15;;;;;;;12.07;100.00;101675.06;5065991;28;20078;-71
2023/09/15 04:36:47;;;;;;;12.18;10.77;;;;;;;12.15;100.00;101678.38;5061196;28;20025;-73
2023/09/15 04:39:16;;;;;;;12.73;10.50;;;;;;;12.08;100.00;101677.56;5045160;28;20456;-71
2023/09/15 04:41:41;;;;;;;13.23;10.55;;;;;;;12.15;100.00;101667.50;5074311;28;20039;-72
2023/09/15 04:44:07;;;;;;;18.88;11.30;;;;;;;12.09;100.00;101672.94;5051080;28;20025;-73
2023/09/15 04:46:39;;;;;;;13.02;10.70;;;;;;;12.03;100.00;101677.34;5036022;28;20059;-72
2023/09/15 04:49:04;;;;;;;15.60;10.85;;;;;;;11.93;100.00;101683.22;5053414;28;20029;-72
2023/09/15 04:51:30;;;;;;;15.40;11.00;;;;;;;12.01;100.00;101682.16;5053850;28;20473;-72
2023/09/15 04:53:55;;;;;;;14.05;11.32;;;;;;;11.93;100.00;101677.81;5037458;28;20120;-72
2023/09/15 04:56:21;;;;;;;13.15;10.95;;;;;;;11.96;100.00;101682.81;5051752;28;20119;-70
2023/09/15 04:58:48;;;;;;;11.80;10.60;;;;;;;11.90;100.00;101686.34;5053869;28;20431;-72
2023/09/15 05:01:16;;;;;;;12.73;11.05;;;;;;;11.92;100.00;101686.13;5051548;28;20037;-69
2023/09/15 05:03:44;;;;;;;13.25;10.10;;;;;;;11.97;100.00;101683.63;5052733;28;20139;-73
2023/09/15 05:06:09;;;;;;;12.45;9.82;;;;;;;11.93;100.00;101688.66;5042715;28;20605;-73
2023/09/15 05:08:37;;;;;;;14.98;10.57;;;;;;;11.94;100.00;101695.75;5048939;28;20029;-69
2023/09/15 05:11:06;;;;;;;12.60;10.15;;;;;;;11.94;100.00;101694.91;5066384;28;20021;-72
2023/09/15 05:13:31;;;;;;;12.82;10.80;;;;;;;11.96;100.00;101690.13;5052567;28;20028;-70
2023/09/15 05:15:57;;;;;;;12.15;10.95;;;;;;;11.95;100.00;101691.97;5035357;28;20033;-73
2023/09/15 05:18:22;;;;;;;13.27;10.25;;;;;;;11.97;100.00;101698.03;5052853;28;20090;-73
2023/09/15 05:20:48;;;;;;;12.55;10.95;;;;;;;11.95;100.00;101691.16;5063091;28;20036;-73
2023/09/15 05:23:13;;;;;;;11.98;10.75;;;;;;;11.82;100.00;101695.56;5066176;28;20441;-72
2023/09/15 05:25:41;;;;;;;16.00;10.93;;;;;;;11.91;100.00;101698.00;5041269;28;20025;-73
2023/09/15 05:28:07;;;;;;;12.13;10.82;;;;;;;11.88;100.00;101691.97;5035541;28;20045;-71
2023/09/15 05:30:32;;;;;;;12.80;10.68;;;;;;;11.87;100.00;101695.72;5053594;28;20163;-73
2023/09/15 05:32:58;;;;;;;15.32;10.48;;;;;;;11.83;100.00;101694.47;5035211;28;20464;-71
2023/09/15 05:35:23;;;;;;;16.25;11.10;;;;;;;11.87;100.00;101690.31;5035381;28;20056;-74
2023/09/15 05:37:51;;;;;;;15.70;11.52;;;;;;;11.91;100.00;101695.31;5070813;28;20040;-73
2023/09/15 05:40:20;;;;;;;13.73;10.43;;;;;;;11.89;100.00;101690.91;5072284;28;20115;-73
2023/09/15 05:42:45;;;;;;;16.33;10.10;;;;;;;11.88;100.00;101697.41;5052940;28;20020;-73
2023/09/15 05:45:11;;;;;;;18.45;10.70;;;;;;;11.89;100.00;101692.81;5040390;28;20043;-71
2023/09/15 05:47:37;;;;;;;15.70;10.20;;;;;;;12.03;100.00;101693.63;5045843;28;20025;-71
2023/09/15 05:50:04;;;;;;;14.00;9.75;;;;;;;12.05;100.00;101695.09;5054454;28;20043;-72
2023/09/15 05:52:30;;;;;;;15.95;9.60;;;;;;;11.99;100.00;101700.53;5049551;28;20032;-75
2023/09/15 05:54:58;;;;;;;17.30;10.48;;;;;;;12.08;100.00;101701.97;5038382;28;20484;-72
2023/09/15 05:57:24;;;;;;;17.02;10.90;;;;;;;12.12;100.00;101708.59;5058904;28;20027;-71
2023/09/15 05:59:50;;;;;;;12.38;9.88;;;;;;;12.12;100.00;101703.19;5069256;28;20123;-73
2023/09/15 06:02:15;;;;;;;14.13;9.55;;;;;;;12.05;100.00;101696.97;5070290;28;20040;-73
2023/09/15 06:04:43;;;;;;;12.68;9.60;;;;;;;12.12;100.00;101702.38;5072348;28;20567;-73
2023/09/15 06:07:08;;;;;;;15.32;10.00;;;;;;;12.17;100.00;101708.81;5065956;28;20055;-71
2023/09/15 06:09:34;;;;;;;14.90;9.95;;;;;;;12.03;100.00;101701.75;5052598;28;20484;-73
2023/09/15 06:11:59;;;;;;;12.77;9.00;;;;;;;12.16;100.00;101709.84;5045820;28;20035;-73
2023/09/15 06:14:27;;;;;;;13.00;9.85;;;;;;;12.13;100.00;101706.75;5063953;28;20571;-71
2023/09/15 06:16:53;;;;;;;13.40;9.07;;;;;;;12.27;100.00;101710.25;5053094;28;20090;-72
2023/09/15 06:19:18;;;;;;;15.73;9.98;;;;;;;12.21;100.00;101709.22;5034911;28;20041;-70
2023/09/15 06:21:47;;;;;;;13.73;9.18;;;;;;;12.26;100.00;101708.56;5039611;28;20063;-74
2023/09/15 06:24:12;;;;;;;11.93;9.10;;;;;;;12.36;100.00;101708.94;5067685;28;20036;-75
2023/09/15 06:26:38;;;;;;;11.80;8.75;;;;;;;12.35;100.00;101707.25;5048019;28;20033;-72
2023/09/15 06:29:03;;;;;;;12.52;9.40;;;;;;;12.35;100.00;101708.13;5074716;28;20095;-71
2023/09/15 06:31:28;;;;;;;13.52;8.77;;;;;;;12.49;100.00;101706.16;5066731;28;20035;-76
2023/09/15 06:33:54;;;;;;;15.40;8.23;;;;;;;12.54;100.00;101697.38;5055848;28;20357;-71
2023/09/15 06:36:19;;;;;;;12.90;9.00;;;;;;;12.53;100.00;101690.25;5052262;28;20087;-72
2023/09/15 06:38:44;;;;;;;12.65;8.70;;;;;;;12.64;100.00;101691.47;5053728;28;20045;-73
2023/09/15 06:41:10;;;;;;;16.63;8.57;;;;;;;12.59;100.00;101692.97;5052209;28;20108;-74
2023/09/15 06:43:36;;;;;;;11.40;9.20;;;;;;;12.69;100.00;101694.38;5034170;28;20063;-73
2023/09/15 06:46:02;;;;;;;11.70;8.18;;;;;;;12.69;100.00;101694.38;5034045;28;20079;-73
2023/09/15 06:48:27;;;;;;;10.88;8.23;;;;;;;12.77;100.00;101694.94;5033438;28;20033;-71
2023/09/15 06:50:53;;;;;;;12.52;8.27;;;;;;;12.83;100.00;101690.53;5034249;28;20512;-71
2023/09/15 06:53:19;;;;;;;12.25;7.88;;;;;;;12.94;100.00;101686.25;5052670;28;20047;-71
2023/09/15 06:55:44;;;;;;;13.55;7.90;;;;;;;12.99;100.00;101691.84;5072060;28;20039;-71
2023/09/15 06:58:09;;;;;;;10.43;8.00;;;;;;;12.98;100.00;101686.66;5071784;28;20028;-70
2023/09/15 07:00:35;;;;;;;12.13;7.32;;;;;;;13.08;100.00;101692.41;5069831;28;20016;-73
2023/09/15 07:03:00;;;;;;;8.90;7.63;;;;;;;13.15;100.00;101679.63;5069499;28;20357;-71
2023/09/15 07:05:25;;;;;;;10.50;7.70;;;;;;;13.20;100.00;101687.09;5071814;28;20072;-72
2023/09/15 07:07:51;;;;;;;10.63;7.97;;;;;;;13.27;100.00;101688.72;5072076;28;20036;-73
2023/09/15 07:10:16;;;;;;;9.43;7.20;;;;;;;13.39;100.00;101688.00;5072188;28;20028;-73
2023/09/15 07:12:41;;;;;;;10.25;7.53;;;;;;;13.42;100.00;101684.84;5072088;28;20033;-74
2023/09/15 07:15:07;;;;;;;9.57;7.07;;;;;;;13.47;100.00;101682.28;5054303;28;20388;-71
2023/09/15 07:17:33;;;;;;;10.63;7.43;;;;;;;13.52;100.00;101677.00;5051632;28;20025;-72
2023/09/15 07:19:58;;;;;;;9.85;7.28;;;;;;;13.55;100.00;101675.72;5052108;28;20497;-75
2023/09/15 07:22:24;;;;;;;9.18;7.03;;;;;;;13.67;100.00;101667.66;5052102;28;20037;-76
2023/09/15 07:24:49;;;;;;;10.43;7.13;;;;;;;13.70;100.00;101670.75;5052136;28;20060;-76
2023/09/15 07:27:15;;;;;;;8.52;6.85;;;;;;;13.72;100.00;101670.53;5051605;28;20134;-70
2023/09/15 07:29:40;;;;;;;12.00;7.63;;;;;;;13.74;100.00;101669.25;5052222;28;20025;-72
2023/09/15 07:32:06;;;;;;;9.18;7.03;;;;;;;13.81;100.00;101666.44;5051145;28;20041;-73
2023/09/15 07:34:32;;;;;;;9.07;7.13;;;;;;;13.82;100.00;101668.13;5050642;28;20473;-73
2023/09/15 07:36:59;;;;;;;12.65;6.88;;;;;;;13.91;100.00;101661.31;5034143;28;20167;-69
2023/09/15 07:39:24;;;;;;;9.02;6.70;;;;;;;13.98;100.00;101662.06;5058778;28;20028;-68
2023/09/15 07:41:50;;;;;;;11.25;6.60;;;;;;;14.08;100.00;101657.97;5060857;28;20104;-73
2023/09/15 07:44:15;;;;;;;13.35;7.03;;;;;;;14.04;100.00;101660.34;5051709;28;20033;-75
2023/09/15 07:46:40;;;;;;;9.10;7.30;;;;;;;14.10;100.00;101658.56;5052169;28;20075;-70
2023/09/15 07:49:07;;;;;;;8.55;6.40;;;;;;;14.27;100.00;101656.88;5062410;28;20037;-73
2023/09/15 07:51:32;;;;;;;11.93;7.03;;;;;;;14.28;100.00;101660.44;5075651;28;20041;-72
2023/09/15 07:53:58;;;;;;;12.32;7.28;;;;;;;14.36;100.00;101657.41;5068485;28;20029;-69
2023/09/15 07:56:24;;;;;;;9.82;6.60;;;;;;;14.31;100.00;101658.09;5055429;28;20025;-73
2023/09/15 07:58:49;;;;;;;10.35;6.45;;;;;;;14.35;100.00;101658.44;5037590;28;20501;-72
2023/09/15 08:01:15;;;;;;;9.43;7.28;;;;;;;14.39;100.00;101656.94;5052760;28;20032;-72
2023/09/15 08:03:40;;;;;;;11.65;6.30;;;;;;;14.43;100.00;101660.03;5054307;28;20049;-74
2023/09/15 08:06:07;;;;;;;10.13;6.50;;;;;;;14.47;100.00;101653.06;5036798;28;20061;-74
2023/09/15 08:08:32;;;;;;;10.25;7.07;;;;;;;14.54;100.00;101654.63;5055343;28;20029;-72
2023/09/15 08:10:58;;;;;;;10.65;7.10;;;;;;;14.60;100.00;101654.75;5037469;28;20028;-71
2023/09/15 08:13:23;;;;;;;11.32;6.50;;;;;;;14.67;100.00;101652.78;5058001;28;20021;-71
2023/09/15 08:15:51;;;;;;;12.80;6.28;;;;;;;14.78;100.00;101654.72;5053866;28;20041;-73
2023/09/15 08:18:20;;;;;;;11.95;6.60;;;;;;;14.82;100.00;101655.06;5054320;28;20033;-72
2023/09/15 08:20:46;;;;;;;8.25;6.13;;;;;;;14.84;100.00;101652.94;5054042;28;20032;-74
2023/09/15 08:23:12;;;;;;;7.55;6.20;;;;;;;14.86;100.00;101648.91;5054645;28;20450;-70
2023/09/15 08:25:38;;;;;;;9.68;6.18;;;;;;;14.98;100.00;101653.56;5056928;28;20082;-68
2023/09/15 08:28:04;;;;;;;9.30;6.55;;;;;;;15.00;100.00;101646.81;5063063;28;20033;-69
2023/09/15 08:30:30;;;;;;;9.10;6.05;;;;;;;15.06;100.00;101651.31;5054427;28;20031;-69
2023/09/15 08:32:55;;;;;;;8.23;6.22;;;;;;;15.17;100.00;101648.84;5053502;28;20052;-70
2023/09/15 08:35:21;;;;;;;6.68;5.63;;;;;;;15.20;100.00;101653.81;5037064;28;20413;-68
2023/09/15 08:37:48;;;;;;;8.30;5.97;;;;;;;15.30;100.00;101648.63;5054601;28;20118;-68
2023/09/15 08:40:13;;;;;;;8.20;5.90;;;;;;;15.33;100.00;101656.31;5074464;28;20100;-70
2023/09/15 08:42:39;;;;;;;8.48;5.72;;;;;;;15.42;100.00;101649.44;5074248;28;20052;-69
2023/09/15 08:45:07;;;;;;;10.35;5.70;;;;;;;15.45;100.00;101652.78;5054656;28;20446;-69
2023/09/15 08:47:36;;;;;;;9.52;6.20;;;;;;;15.52;100.00;101648.00;5036633;28;20036;-70
2023/09/15 08:50:03;;;;;;;9.70;5.80;;;;;;;15.55;100.00;101647.53;5036577;28;20031;-69
2023/09/15 08:52:30;;;;;;;7.30;5.63;;;;;;;15.63;100.00;101646.34;5036400;28;20043;-71
2023/09/15 08:54:56;;;;;;;7.75;5.32;;;;;;;15.73;100.00;101639.22;5072523;28;20052;-70
2023/09/15 08:57:23;;;;;;;10.82;5.68;;;;;;;15.77;100.00;101639.56;5063402;28;20214;-70
2023/09/15 08:59:50;;;;;;;9.07;6.05;;;;;;;15.87;100.00;101638.97;5054032;28;20053;-70
2023/09/15 09:02:16;;;;;;;6.90;5.50;;;;;;;15.87;100.00;101630.78;5058992;28;20154;-70
2023/09/15 09:04:42;;;;;;;8.55;5.65;;;;;;;15.95;100.00;101638.59;5074351;28;20078;-69
2023/09/15 09:07:08;;;;;;;9.88;5.70;;;;;;;15.99;100.00;101642.50;5073963;28;20028;-70
2023/09/15 09:09:34;;;;;;;7.47;5.80;;;;;;;16.06;100.00;101643.19;5074340;28;20032;-70
2023/09/15 09:12:00;;;;;;;9.10;5.25;;;;;;;16.18;100.00;101640.41;5056330;28;20110;-70
2023/09/15 09:14:25;;;;;;;6.82;5.50;;;;;;;16.16;100.00;101639.81;5057686;28;20045;-69
2023/09/15 09:16:52;;;;;;;7.40;5.38;;;;;;;16.24;100.00;101633.97;5053497;28;20207;-70
2023/09/15 09:19:18;;;;;;;8.88;5.20;;;;;;;16.29;100.00;101630.53;5053416;28;20024;-70
2023/09/15 09:21:44;;;;;;;6.43;5.13;;;;;;;16.35;100.00;101635.00;5053797;28;20491;-70
2023/09/15 09:24:10;;;;;;;10.98;4.93;;;;;;;16.47;100.00;101638.50;5053824;28;20033;-70
2023/09/15 09:26:36;;;;;;;5.80;5.18;;;;;;;16.57;100.00;101634.31;5054075;28;20071;-70
2023/09/15 09:29:02;;;;;;;6.22;4.22;;;;;;;16.71;100.00;101637.53;5053890;28;20060;-70
2023/09/15 09:31:28;;;;;;;7.43;4.40;;;;;;;16.91;100.00;101634.34;5057956;28;20027;-70
2023/09/15 09:33:55;;;;;;;8.27;4.47;;;;;;;16.92;100.00;101625.91;5075973;28;20036;-69
2023/09/15 09:36:20;;;;;;;10.07;4.88;;;;;;;17.01;100.00;101634.50;5061843;28;20029;-70
2023/09/15 09:38:50;;;;;;;7.65;4.57;;;;;;;17.05;100.00;101630.22;5063111;28;20063;-69
2023/09/15 09:41:20;;;;;;;9.48;4.18;;;;;;;17.13;100.00;101635.25;5073499;28;20052;-70
2023/09/15 09:43:46;;;;;;;7.07;4.10;;;;;;;17.22;100.00;101632.09;5073488;28;20025;-70
2023/09/15 09:46:13;;;;;;;7.93;4.13;;;;;;;17.27;100.00;101623.97;5066309;28;20269;-70
2023/09/15 09:48:39;;;;;;;5.47;3.72;;;;;;;17.34;100.00;101619.16;5051467;28;20457;-70
2023/09/15 09:51:05;;;;;;;5.47;3.58;;;;;;;17.44;100.00;101619.31;5053303;28;20108;-70
2023/09/15 09:53:35;;;;;;;11.80;3.33;;;;;;;17.52;100.00;101623.50;5053082;28;20036;-70
2023/09/15 09:56:03;;;;;;;6.85;3.70;;;;;;;17.60;100.00;101624.97;5053000;28;20033;-70
2023/09/15 09:58:28;;;;;;;6.75;3.78;;;;;;;17.68;100.00;101625.38;5051673;28;20079;-70
2023/09/15 10:00:53;;;;;;;6.03;4.18;;;;;;;17.66;100.00;101616.59;5032994;28;20025;-70
2023/09/15 10:03:22;;;;;;;7.10;3.95;;;;;;;17.80;100.00;101617.03;5067362;28;20033;-69
2023/09/15 10:05:48;;;;;;;8.50;3.67;;;;;;;17.79;100.00;101618.09;5055121;28;20031;-70
2023/09/15 10:08:15;;;;;;;8.40;3.90;;;;;;;17.87;100.00;101611.34;5048424;28;20091;-68
2023/09/15 10:10:44;;;;;;;5.97;3.63;;;;;;;17.95;100.00;101608.22;5055080;28;20024;-70
2023/09/15 10:13:11;;;;;;;5.90;3.55;;;;;;;18.02;100.00;101613.47;5072472;28;20598;-71
2023/09/15 10:15:39;;;;;;;8.85;3.63;;;;;;;18.17;100.00;101605.44;5072590;28;20158;-71
2023/09/15 10:18:06;;;;;;;8.20;3.55;;;;;;;18.15;100.00;101602.13;5066340;28;20040;-70
2023/09/15 10:20:32;;;;;;;5.95;3.50;;;;;;;18.20;100.00;101593.94;5072679;28;20361;-69
2023/09/15 10:22:59;;;;;;;6.88;3.95;;;;;;;18.29;100.00;101588.03;5072591;28;20452;-69
2023/09/15 10:25:24;;;;;;;8.43;3.90;;;;;;;18.36;100.00;101583.16;5054625;28;20035;-70
2023/09/15 10:27:50;;;;;;;6.68;3.80;;;;;;;18.47;100.00;101593.13;5044146;28;20029;-70
2023/09/15 10:30:15;;;;;;;7.40;3.50;;;;;;;18.47;100.00;101586.81;5052063;28;20033;-69
2023/09/15 10:32:43;;;;;;;6.85;3.58;;;;;;;18.57;100.00;101587.75;5034264;28;20087;-72
2023/09/15 10:35:10;;;;;;;5.70;3.65;;;;;;;18.59;100.00;101582.81;5053961;28;20041;-69
2023/09/15 10:37:43;;;;;;;5.50;3.58;;;;;;;18.70;100.00;101586.47;5071984;28;20032;-71
2023/09/15 10:40:10;;;;;;;6.97;3.70;;;;;;;18.84;100.00;101575.06;5091867;28;20089;-69
2023/09/15 10:42:48;;;;;;;7.13;3.28;;;;;;;18.98;100.00;101572.69;5065971;28;20024;-70
2023/09/15 10:45:13;;;;;;;6.13;3.00;;;;;;;19.10;100.00;101578.84;5052257;28;20100;-70
2023/09/15 10:47:38;;;;;;;6.65;3.45;;;;;;;19.17;100.00;101573.94;5063378;28;20108;-69
2023/09/15 10:50:05;;;;;;;6.28;3.67;;;;;;;19.03;100.00;101567.28;5054422;28;20021;-70
2023/09/15 10:52:42;;;;;;;5.90;3.83;;;;;;;19.16;100.00;101564.06;5049315;28;20473;-72
2023/09/15 10:55:07;;;;;;;6.35;3.60;;;;;;;19.32;100.00;101562.22;5051270;28;20029;-70
2023/09/15 10:57:35;;;;;;;5.15;3.70;;;;;;;19.37;100.00;101561.41;5052196;28;20772;-71
2023/09/15 11:00:05;;;;;;;8.98;3.05;;;;;;;19.45;100.00;101547.19;5034510;28;20028;-71
2023/09/15 11:02:34;;;;;;;5.00;3.10;;;;;;;19.58;100.00;101549.44;5049760;28;20067;-70
2023/09/15 11:05:00;;;;;;;6.35;3.47;;;;;;;19.62;100.00;101549.72;5052335;28;20327;-69